createdAt,value
2022-08-18T00:04:21.775Z,23.90
2022-08-18T00:09:35.860Z,23.85
2022-08-18T00:14:37.178Z,23.83
2022-08-18T00:19:46.691Z,23.74
2022-08-18T00:24:53.870Z,23.78
2022-08-18T00:29:57.497Z,23.76
2022-08-18T00:35:07.103Z,23.80
2022-08-18T00:40:11.325Z,23.84
2022-08-18T00:45:16.795Z,23.87
2022-08-18T00:50:33.492Z,23.85
2022-08-18T00:55:35.682Z,23.85
2022-08-18T01:00:38.247Z,23.85
2022-08-18T01:05:47.765Z,23.85
2022-08-18T01:10:49.823Z,23.78
2022-08-18T01:15:51.336Z,23.74
2022-08-18T01:21:21.366Z,23.86
2022-08-18T01:26:26.168Z,23.81
2022-08-18T01:31:38.173Z,23.82
2022-08-18T01:36:41.912Z,23.88
2022-08-18T01:41:43.275Z,23.87
2022-08-18T01:46:46.279Z,23.87
2022-08-18T01:51:48.598Z,23.87
2022-08-18T01:56:50.129Z,23.70
2022-08-18T02:01:53.771Z,23.37
2022-08-18T02:06:56.038Z,23.23
2022-08-18T02:11:57.621Z,23.37
2022-08-18T02:17:02.682Z,23.42
2022-08-18T02:22:06.037Z,23.45
2022-08-18T02:27:08.591Z,23.44
2022-08-18T02:32:10.102Z,23.26
2022-08-18T02:37:15.014Z,23.30
2022-08-18T02:42:17.277Z,23.18
2022-08-18T02:47:21.909Z,23.15
2022-08-18T02:52:23.712Z,23.15
2022-08-18T02:57:25.115Z,23.16
2022-08-18T03:02:26.861Z,23.25
2022-08-18T03:07:28.245Z,23.28
2022-08-18T03:12:29.591Z,23.17
2022-08-18T03:17:31.742Z,23.20
2022-08-18T03:22:33.929Z,23.22
2022-08-18T03:27:35.766Z,23.30
2022-08-18T03:32:37.183Z,23.30
2022-08-18T03:37:38.521Z,23.21
2022-08-18T03:42:39.857Z,23.19
2022-08-18T03:47:41.192Z,23.17
2022-08-18T03:52:42.510Z,23.21
2022-08-18T03:57:45.701Z,23.26
2022-08-18T04:02:46.978Z,23.29
2022-08-18T04:07:48.416Z,23.33
2022-08-18T04:12:50.469Z,23.36
2022-08-18T04:18:03.162Z,23.33
2022-08-18T04:23:05.667Z,23.26
2022-08-18T04:28:07.188Z,23.10
2022-08-18T04:33:08.562Z,23.22
2022-08-18T04:38:10.294Z,23.25
2022-08-18T04:43:15.153Z,23.21
2022-08-18T04:48:17.490Z,23.20
2022-08-18T04:53:37.823Z,23.23
2022-08-18T04:58:39.151Z,23.22
2022-08-18T05:03:41.329Z,23.23
2022-08-18T05:08:57.426Z,23.27
2022-08-18T05:14:00.325Z,23.24
2022-08-18T05:19:04.358Z,23.22
2022-08-18T05:24:10.026Z,22.91
2022-08-18T05:29:18.351Z,22.90
2022-08-18T05:34:21.903Z,22.88
2022-08-18T05:39:35.868Z,22.84
2022-08-18T05:44:42.502Z,22.84
2022-08-18T05:49:46.659Z,22.97
2022-08-18T05:55:15.754Z,22.88
2022-08-18T06:00:20.987Z,22.95
2022-08-18T06:05:31.261Z,23.02
2022-08-18T06:10:32.791Z,23.02
2022-08-18T06:16:19.206Z,23.07
2022-08-18T06:21:38.904Z,23.08
2022-08-18T06:26:57.318Z,23.08
2022-08-18T06:32:34.504Z,23.01
2022-08-18T06:38:14.006Z,23.09
2022-08-18T06:43:17.282Z,23.11
2022-08-18T06:48:32.465Z,23.14
2022-08-18T06:54:24.403Z,22.93
2022-08-18T06:59:32.930Z,22.87
2022-08-18T07:04:44.557Z,22.79
2022-08-18T07:09:47.230Z,22.83
2022-08-18T07:15:00.552Z,22.75
2022-08-18T07:20:08.912Z,22.71
2022-08-18T07:25:22.901Z,22.70
2022-08-18T07:30:24.783Z,22.57
2022-08-18T07:35:47.574Z,22.60
2022-08-18T07:41:00.851Z,22.56
2022-08-18T07:46:13.404Z,22.71
2022-08-18T07:51:33.850Z,22.73
2022-08-18T07:56:50.210Z,22.70
2022-08-18T08:02:13.320Z,22.71
2022-08-18T08:07:24.558Z,22.67
2022-08-18T08:12:39.094Z,22.59
2022-08-18T08:17:55.422Z,22.54
2022-08-18T08:23:30.548Z,22.57
2022-08-18T08:28:55.733Z,22.55
2022-08-18T08:34:16.681Z,22.43
2022-08-18T08:39:24.925Z,22.47
2022-08-18T08:44:34.477Z,22.65
2022-08-18T08:49:44.977Z,22.74
2022-08-18T08:54:58.383Z,22.77
2022-08-18T09:00:02.877Z,22.86
2022-08-18T09:05:10.190Z,22.94
2022-08-18T09:10:30.812Z,22.93
2022-08-18T09:16:13.437Z,23.02
2022-08-18T09:21:21.109Z,23.15
2022-08-18T09:26:44.938Z,23.30
2022-08-18T09:31:46.799Z,23.44
2022-08-18T09:37:02.469Z,23.50
2022-08-18T09:42:11.302Z,23.61
2022-08-18T09:47:33.784Z,23.69
2022-08-18T09:52:37.557Z,23.73
2022-08-18T09:57:43.790Z,23.71
2022-08-18T10:08:21.348Z,23.87
2022-08-18T10:13:48.904Z,23.98
2022-08-18T10:19:09.199Z,24.26
2022-08-18T10:29:52.634Z,24.52
2022-08-18T10:34:55.304Z,24.35
2022-08-18T10:40:01.299Z,24.27
2022-08-18T10:45:16.095Z,24.22
2022-08-18T10:50:28.371Z,24.30
2022-08-18T10:55:50.031Z,24.29
2022-08-18T11:01:07.793Z,24.39
2022-08-18T11:11:43.014Z,24.13
2022-08-18T11:17:03.675Z,24.08
2022-08-18T11:22:31.488Z,24.23
2022-08-18T11:27:48.716Z,24.32
2022-08-18T11:32:51.743Z,24.56
2022-08-18T11:37:57.568Z,25.00
2022-08-18T11:43:40.953Z,25.91
2022-08-18T11:48:52.031Z,27.35
2022-08-18T11:54:21.999Z,28.19
2022-08-18T11:59:53.861Z,29.09
2022-08-18T12:04:52.385Z,29.28
2022-08-18T12:10:20.015Z,29.85
2022-08-18T12:20:53.077Z,30.60
2022-08-18T12:25:54.562Z,29.69
2022-08-18T12:30:57.403Z,29.69
2022-08-18T12:35:59.591Z,29.70
2022-08-18T12:41:01.418Z,30.29
2022-08-18T12:46:05.003Z,30.42
2022-08-18T12:51:09.864Z,30.30
2022-08-18T12:56:23.363Z,30.13
2022-08-18T13:01:27.063Z,30.47
2022-08-18T13:06:36.509Z,30.40
2022-08-18T13:11:37.856Z,30.51
2022-08-18T13:16:54.710Z,30.59
2022-08-18T13:21:57.008Z,30.33
2022-08-18T13:26:58.653Z,30.51
2022-08-18T13:32:00.331Z,30.74
2022-08-18T13:37:01.631Z,30.18
2022-08-18T13:42:26.092Z,30.43
2022-08-18T13:47:31.945Z,30.59
2022-08-18T13:52:49.595Z,30.65
2022-08-18T13:57:51.370Z,30.43
2022-08-18T14:02:57.047Z,30.67
2022-08-18T14:07:58.941Z,30.09
2022-08-18T14:13:01.798Z,30.04
2022-08-18T14:18:28.923Z,30.11
2022-08-18T14:23:53.178Z,29.90
2022-08-18T14:28:55.407Z,30.24
2022-08-18T14:33:59.731Z,30.28
2022-08-18T14:39:06.028Z,30.34
2022-08-18T14:44:15.328Z,30.13
2022-08-18T14:49:28.248Z,29.84
2022-08-18T14:54:31.782Z,29.71
2022-08-18T14:59:34.572Z,29.66
2022-08-18T15:04:56.405Z,29.70
2022-08-18T15:10:15.536Z,29.52
2022-08-18T15:15:22.630Z,29.25
2022-08-18T15:20:28.793Z,29.17
2022-08-18T15:25:44.601Z,29.04
2022-08-18T15:30:51.013Z,28.76
2022-08-18T15:35:54.494Z,28.50
2022-08-18T15:40:59.630Z,28.31
2022-08-18T15:46:07.546Z,27.93
2022-08-18T15:51:12.159Z,27.86
2022-08-18T15:56:20.902Z,27.76
2022-08-18T16:01:30.455Z,27.69
2022-08-18T16:06:34.969Z,27.71
2022-08-18T16:11:37.132Z,27.81
2022-08-18T16:16:38.531Z,27.79
2022-08-18T16:21:40.141Z,27.75
2022-08-18T16:26:41.690Z,27.65
2022-08-18T16:31:43.126Z,27.49
2022-08-18T16:36:44.475Z,27.50
2022-08-18T16:41:46.423Z,27.45
2022-08-18T16:46:47.932Z,27.30
2022-08-18T16:51:49.361Z,27.24
2022-08-18T16:56:50.817Z,27.09
2022-08-18T17:02:10.747Z,27.00
2022-08-18T17:07:12.111Z,26.93
2022-08-18T17:12:13.596Z,26.84
2022-08-18T17:17:17.927Z,26.71
2022-08-18T17:22:20.093Z,26.64
2022-08-18T17:27:34.593Z,26.52
2022-08-18T17:32:41.986Z,26.48
2022-08-18T17:37:54.488Z,26.37
2022-08-18T17:42:59.710Z,26.28
2022-08-18T17:48:16.469Z,26.19
2022-08-18T17:53:18.937Z,26.11
2022-08-18T17:58:44.474Z,25.96
2022-08-18T18:03:45.875Z,25.92
2022-08-18T18:09:00.568Z,25.88
2022-08-18T18:14:24.059Z,25.72
2022-08-18T18:19:33.263Z,25.64
2022-08-18T18:24:37.401Z,25.59
2022-08-18T18:29:39.792Z,25.58
2022-08-18T18:34:45.776Z,25.51
2022-08-18T18:39:55.371Z,25.48
2022-08-18T18:45:02.673Z,25.52
2022-08-18T18:50:12.647Z,25.44
2022-08-18T18:55:21.784Z,25.33
2022-08-18T19:00:31.593Z,25.26
2022-08-18T19:05:40.085Z,24.96
2022-08-18T19:11:05.544Z,24.95
2022-08-18T19:16:23.823Z,24.96
2022-08-18T19:22:04.108Z,24.95
2022-08-18T19:26:50.864Z,24.87
2022-08-18T19:32:04.680Z,24.80
2022-08-18T19:37:36.187Z,24.82
2022-08-18T19:43:12.296Z,24.72
2022-08-18T19:48:41.745Z,24.74
2022-08-18T19:54:11.001Z,24.72
2022-08-18T19:59:33.995Z,24.57
2022-08-18T20:04:59.077Z,24.52
2022-08-18T20:10:03.484Z,24.58
2022-08-18T20:15:13.195Z,24.54
2022-08-18T20:20:18.189Z,24.51
2022-08-18T20:25:25.905Z,24.50
2022-08-18T20:30:50.524Z,24.48
2022-08-18T20:36:06.651Z,24.48
2022-08-18T20:41:26.392Z,24.42
2022-08-18T20:46:53.813Z,24.38
2022-08-18T20:52:06.407Z,24.33
2022-08-18T20:57:11.014Z,24.30
2022-08-18T21:02:40.968Z,24.28
2022-08-18T21:08:02.548Z,24.28
2022-08-18T21:13:05.727Z,24.18
2022-08-18T21:18:18.565Z,24.04
2022-08-18T21:23:29.658Z,24.03
2022-08-18T21:28:34.821Z,24.03
2022-08-18T21:33:36.369Z,23.91
2022-08-18T21:38:38.710Z,23.90
2022-08-18T21:43:49.019Z,23.90
2022-08-18T21:48:53.701Z,23.81
2022-08-18T21:53:55.638Z,23.77
2022-08-18T21:59:14.098Z,23.67
2022-08-18T22:04:24.160Z,23.67
2022-08-18T22:09:47.281Z,23.59
2022-08-18T22:14:55.141Z,23.58
2022-08-18T22:20:35.737Z,23.54
2022-08-18T22:25:37.309Z,23.59
2022-08-18T22:30:38.622Z,23.59
2022-08-18T22:35:40.136Z,23.38
2022-08-18T22:40:41.572Z,23.43
2022-08-18T22:45:43.016Z,23.42
2022-08-18T22:50:46.281Z,23.50
2022-08-18T22:55:47.787Z,23.52
2022-08-18T23:00:49.130Z,23.55
2022-08-18T23:05:50.430Z,23.54
2022-08-18T23:10:51.766Z,23.51
2022-08-18T23:15:54.322Z,23.52
2022-08-18T23:21:34.829Z,23.44
2022-08-18T23:26:36.426Z,23.48
2022-08-18T23:31:39.973Z,23.46
2022-08-18T23:36:45.604Z,23.42
2022-08-18T23:41:47.778Z,23.42
2022-08-18T23:46:50.385Z,23.44
2022-08-18T23:51:55.061Z,23.37
2022-08-18T23:56:56.941Z,23.32
